Time;durP1;ratioP1;P1;durP2;ratioP2;P2;SDS_P1;SDS_P2;PMS_P1;PMS_P2;Temp;Humidity;BMP_temperature;BMP_pressure;BME280_temperature;BME280_humidity;BME280_pressure;Samples;Min_cycle;Max_cycle;Signal;HPM_P1;HPM_P2
2022/11/17 00:01:40;;;;;;;36.23;20.17;;;7.60;99.90;;;;;;5061253;28;20521;-75
2022/11/17 00:04:06;;;;;;;32.07;17.87;;;7.60;99.90;;;;;;5049418;28;20048;-74
2022/11/17 00:06:32;;;;;;;31.97;18.43;;;7.60;99.90;;;;;;5054184;28;20032;-74
2022/11/17 00:08:58;;;;;;;35.93;19.03;;;7.70;99.90;;;;;;5048537;28;20458;-75
2022/11/17 00:11:23;;;;;;;33.83;17.23;;;7.70;99.90;;;;;;5062315;28;20079;-75
2022/11/17 00:16:33;;;;;;;30.67;17.30;;;7.70;99.90;;;;;;5058341;28;20124;-74
2022/11/17 00:21:43;;;;;;;31.15;17.60;;;7.70;99.90;;;;;;5041037;28;20045;-75
2022/11/17 00:24:09;;;;;;;30.87;17.73;;;7.70;99.90;;;;;;5046687;28;20036;-75
2022/11/17 00:27:00;;;;;;;29.00;16.57;;;7.70;99.90;;;;;;5013093;28;20037;-74
2022/11/17 00:29:21;;;;;;;30.17;17.77;;;7.70;99.90;;;;;;5050322;28;20045;-74
2022/11/17 00:34:31;;;;;;;28.02;16.58;;;7.70;99.90;;;;;;5081353;28;20071;-75
2022/11/17 00:36:56;;;;;;;28.43;16.77;;;7.70;99.90;;;;;;5047965;28;20609;-75
2022/11/17 00:39:23;;;;;;;29.57;17.03;;;7.70;99.90;;;;;;5048343;28;20036;-74
2022/11/17 00:41:49;;;;;;;35.20;17.58;;;7.70;99.90;;;;;;5035696;28;20052;-74
2022/11/17 00:44:15;;;;;;;30.07;17.33;;;7.70;99.90;;;;;;5021415;28;20178;-75
2022/11/17 00:46:41;;;;;;;28.23;16.38;;;7.70;99.90;;;;;;5064781;28;20132;-75
2022/11/17 00:49:09;;;;;;;32.67;16.42;;;7.70;99.90;;;;;;5031135;28;20068;-75
2022/11/17 00:51:36;;;;;;;28.80;16.23;;;7.70;99.90;;;;;;5036449;28;20455;-75
2022/11/17 00:54:03;;;;;;;29.85;17.40;;;7.80;99.90;;;;;;5038930;28;20182;-74
2022/11/17 00:56:29;;;;;;;26.85;16.48;;;7.80;99.90;;;;;;5044474;28;20104;-75
2022/11/17 00:58:55;;;;;;;31.73;16.40;;;7.80;99.90;;;;;;5040787;28;20098;-74
2022/11/17 01:01:21;;;;;;;29.60;16.33;;;7.80;99.90;;;;;;5062956;28;20082;-75
2022/11/17 01:03:47;;;;;;;29.30;17.58;;;7.80;99.90;;;;;;5033043;28;20047;-75
2022/11/17 01:06:18;;;;;;;26.57;16.50;;;7.80;99.90;;;;;;5047944;28;20048;-75
2022/11/17 01:08:45;;;;;;;29.48;17.52;;;7.80;99.90;;;;;;5038977;28;20489;-75
2022/11/17 01:11:14;;;;;;;26.50;17.42;;;7.80;99.90;;;;;;5077425;28;20094;-75
2022/11/17 01:13:41;;;;;;;26.73;16.25;;;7.80;99.90;;;;;;5039635;28;20106;-75
2022/11/17 01:16:10;;;;;;;27.15;15.75;;;7.90;99.90;;;;;;5064373;28;20451;-75
2022/11/17 01:18:37;;;;;;;30.77;16.50;;;7.80;99.90;;;;;;5053739;28;20048;-75
2022/11/17 01:21:05;;;;;;;22.23;14.77;;;7.80;99.90;;;;;;5041918;28;20045;-75
2022/11/17 01:23:31;;;;;;;25.08;15.52;;;7.90;99.90;;;;;;5029192;28;20517;-75
2022/11/17 01:26:06;;;;;;;26.15;15.73;;;7.90;99.90;;;;;;5030483;28;20040;-75
2022/11/17 01:28:32;;;;;;;25.55;16.05;;;7.90;99.90;;;;;;5035200;28;20125;-75
2022/11/17 01:31:04;;;;;;;27.98;15.68;;;7.90;99.90;;;;;;5029894;28;20052;-75
2022/11/17 01:33:30;;;;;;;21.00;14.88;;;7.90;99.90;;;;;;5046165;28;20103;-75
2022/11/17 01:36:03;;;;;;;25.60;15.13;;;7.90;99.90;;;;;;5063866;28;20360;-75
2022/11/17 01:38:30;;;;;;;25.17;15.02;;;7.90;99.90;;;;;;5063658;28;20041;-75
2022/11/17 01:41:00;;;;;;;25.58;15.23;;;7.90;99.90;;;;;;5039527;28;20151;-75
2022/11/17 01:43:41;;;;;;;22.95;13.80;;;7.90;99.90;;;;;;5029350;28;20045;-74
2022/11/17 01:46:31;;;;;;;23.38;14.80;;;7.90;99.90;;;;;;5044756;28;20071;-75
2022/11/17 01:49:21;;;;;;;23.50;14.63;;;7.90;99.90;;;;;;5042115;28;20044;-75
2022/11/17 01:51:55;;;;;;;22.02;14.65;;;7.90;99.90;;;;;;5050682;28;20040;-76
2022/11/17 01:54:24;;;;;;;22.60;15.07;;;7.90;99.90;;;;;;5057517;28;20041;-75
2022/11/17 01:56:55;;;;;;;22.75;15.20;;;7.90;99.90;;;;;;5058455;28;20279;-75
2022/11/17 01:59:24;;;;;;;22.58;14.77;;;7.90;99.90;;;;;;5027532;28;20496;-74
2022/11/17 02:01:55;;;;;;;22.63;14.88;;;7.90;99.90;;;;;;5058329;28;20077;-75
2022/11/17 02:04:24;;;;;;;22.83;14.80;;;7.80;99.90;;;;;;5035470;28;20052;-74
2022/11/17 02:06:54;;;;;;;24.15;15.65;;;7.80;99.90;;;;;;5052828;28;20400;-75
2022/11/17 02:09:21;;;;;;;22.50;15.82;;;7.80;99.90;;;;;;5058206;28;20044;-75
2022/11/17 02:11:48;;;;;;;20.50;14.70;;;7.80;99.90;;;;;;5047281;28;20036;-76
2022/11/17 02:14:14;;;;;;;23.05;16.10;;;7.80;99.90;;;;;;5047073;28;20123;-76
2022/11/17 02:16:39;;;;;;;21.10;14.90;;;7.80;99.90;;;;;;5038882;28;20144;-76
2022/11/17 02:19:08;;;;;;;25.00;15.13;;;7.80;99.90;;;;;;5033178;28;20593;-76
2022/11/17 02:21:52;;;;;;;25.05;15.98;;;7.80;99.90;;;;;;5034102;28;20037;-76
2022/11/17 02:24:37;;;;;;;22.73;14.82;;;7.70;99.90;;;;;;5039233;28;20393;-75
2022/11/17 02:27:25;;;;;;;22.08;14.57;;;7.70;99.90;;;;;;5067531;28;20072;-76
2022/11/17 02:29:54;;;;;;;21.48;14.20;;;7.70;99.90;;;;;;5067093;28;20074;-76
2022/11/17 02:32:44;;;;;;;20.02;14.50;;;7.70;99.90;;;;;;5050345;28;20040;-76
2022/11/17 02:35:35;;;;;;;22.67;15.57;;;7.70;99.90;;;;;;5050494;28;20506;-76
2022/11/17 02:38:26;;;;;;;20.40;14.77;;;7.60;99.90;;;;;;5067982;28;20032;-76
2022/11/17 02:41:07;;;;;;;23.17;14.82;;;7.60;99.90;;;;;;5038844;28;20071;-76
2022/11/17 02:44:05;;;;;;;24.45;15.18;;;7.60;99.90;;;;;;5050372;28;20044;-76
2022/11/17 02:46:44;;;;;;;22.67;14.55;;;7.60;99.90;;;;;;5048910;28;20056;-76
2022/11/17 02:49:33;;;;;;;22.73;14.77;;;7.60;99.90;;;;;;5050626;28;20666;-76
2022/11/17 02:52:01;;;;;;;23.88;14.43;;;7.50;99.90;;;;;;5067121;28;20043;-77
2022/11/17 02:54:29;;;;;;;26.17;15.80;;;7.50;99.90;;;;;;5033587;28;20294;-75
2022/11/17 02:56:55;;;;;;;21.85;13.70;;;7.50;99.90;;;;;;5050347;28;20047;-76
2022/11/17 02:59:43;;;;;;;23.83;14.15;;;7.50;99.90;;;;;;5050094;28;20048;-76
2022/11/17 03:02:36;;;;;;;21.77;13.32;;;7.50;99.90;;;;;;5050140;28;20157;-76
2022/11/17 03:05:11;;;;;;;21.42;13.05;;;7.50;99.90;;;;;;5082757;28;20508;-77
2022/11/17 03:07:54;;;;;;;24.45;14.73;;;7.60;99.90;;;;;;5055413;28;20049;-76
2022/11/17 03:10:26;;;;;;;22.25;13.73;;;7.60;99.90;;;;;;5049275;28;20040;-77
2022/11/17 03:13:24;;;;;;;22.52;13.82;;;7.50;99.90;;;;;;5052925;28;20037;-77
2022/11/17 03:16:01;;;;;;;21.00;13.50;;;7.50;99.90;;;;;;5037576;28;20090;-77
2022/11/17 03:18:49;;;;;;;21.33;14.07;;;7.50;99.90;;;;;;5032146;28;20507;-77
2022/11/17 03:21:27;;;;;;;23.98;15.00;;;7.50;99.90;;;;;;5056015;28;20551;-77
2022/11/17 03:23:56;;;;;;;21.45;14.57;;;7.50;99.90;;;;;;5050171;28;20118;-77
2022/11/17 03:26:26;;;;;;;25.77;15.52;;;7.50;99.90;;;;;;5059519;28;20045;-76
2022/11/17 03:28:54;;;;;;;21.15;14.52;;;7.40;99.90;;;;;;5044855;28;20045;-76
2022/11/17 03:31:22;;;;;;;20.83;13.80;;;7.40;99.90;;;;;;5066137;28;20044;-77
2022/11/17 03:33:49;;;;;;;22.67;14.20;;;7.40;99.90;;;;;;5032165;28;20087;-76
2022/11/17 03:36:25;;;;;;;20.88;12.95;;;7.50;99.90;;;;;;5057841;28;20430;-77
2022/11/17 03:39:07;;;;;;;21.88;12.73;;;7.40;99.90;;;;;;5064683;28;20052;-77
2022/11/17 03:41:38;;;;;;;22.65;13.50;;;7.40;99.90;;;;;;5049297;28;20120;-77
2022/11/17 03:44:05;;;;;;;21.00;13.25;;;7.40;99.90;;;;;;5066931;28;20143;-77
2022/11/17 03:46:32;;;;;;;18.58;12.27;;;7.50;99.90;;;;;;5049004;28;20064;-76
2022/11/17 03:49:19;;;;;;;18.77;11.95;;;7.50;99.90;;;;;;5049125;28;20044;-77
2022/11/17 03:51:45;;;;;;;19.20;12.80;;;7.50;99.90;;;;;;5062092;28;20055;-77
2022/11/17 03:54:13;;;;;;;19.27;12.52;;;7.50;99.90;;;;;;5046966;28;20047;-77
2022/11/17 03:56:48;;;;;;;21.15;12.73;;;7.50;99.90;;;;;;5047821;28;20048;-76
2022/11/17 03:59:35;;;;;;;20.65;13.10;;;7.50;99.90;;;;;;5066455;28;20040;-77
2022/11/17 04:02:01;;;;;;;19.27;12.60;;;7.50;99.90;;;;;;5035692;28;20411;-77
2022/11/17 04:05:04;;;;;;;21.25;12.88;;;7.50;99.90;;;;;;5044453;28;20032;-76
2022/11/17 04:07:12;;;;;;;20.30;12.25;;;7.50;99.90;;;;;;5048183;28;20095;-77
2022/11/17 04:09:38;;;;;;;19.83;12.83;;;7.50;99.90;;;;;;5056655;28;20568;-78
2022/11/17 04:17:32;;;;;;;20.30;13.13;;;7.50;99.90;;;;;;5046302;28;20057;-77
2022/11/17 04:19:58;;;;;;;17.57;11.23;;;7.40;99.90;;;;;;5038291;28;20042;-77
2022/11/17 04:22:24;;;;;;;19.27;11.80;;;7.40;99.90;;;;;;5048315;28;20048;-77
2022/11/17 04:24:49;;;;;;;22.20;12.13;;;7.50;99.90;;;;;;5032619;28;20041;-77
2022/11/17 04:29:59;;;;;;;18.25;11.52;;;7.50;99.90;;;;;;5045378;28;20037;-77
2022/11/17 04:32:25;;;;;;;18.93;10.77;;;7.50;99.90;;;;;;5016577;28;20411;-77
2022/11/17 04:34:50;;;;;;;15.27;9.97;;;7.50;99.90;;;;;;5022751;28;20044;-77
2022/11/17 04:37:16;;;;;;;16.50;10.03;;;7.50;99.90;;;;;;5059111;28;20413;-77
2022/11/17 04:39:44;;;;;;;17.47;10.77;;;7.50;99.90;;;;;;5012926;28;20068;-77
2022/11/17 04:42:09;;;;;;;15.80;10.07;;;7.50;99.90;;;;;;5046753;28;20044;-77
2022/11/17 04:44:35;;;;;;;16.07;9.53;;;7.50;99.90;;;;;;5041083;28;20050;-77
2022/11/17 04:47:02;;;;;;;16.00;9.80;;;7.50;99.90;;;;;;5048565;28;20057;-77
2022/11/17 04:49:29;;;;;;;15.75;10.13;;;7.50;99.90;;;;;;5023279;28;20054;-77
2022/11/17 04:51:55;;;;;;;15.35;10.30;;;7.50;99.90;;;;;;5051976;28;20241;-76
2022/11/17 04:54:23;;;;;;;15.27;10.10;;;7.50;99.90;;;;;;5053484;28;20032;-76
2022/11/17 04:56:55;;;;;;;16.10;9.75;;;7.50;99.90;;;;;;5017892;28;20127;-76
2022/11/17 04:59:22;;;;;;;16.88;9.73;;;7.50;99.90;;;;;;5045198;28;20454;-76
2022/11/17 05:01:48;;;;;;;16.90;10.07;;;7.50;99.90;;;;;;5076959;28;20111;-77
2022/11/17 05:07:01;;;;;;;15.82;9.77;;;7.40;99.90;;;;;;5056744;28;20076;-78
2022/11/17 05:09:27;;;;;;;14.17;9.60;;;7.40;99.90;;;;;;5038837;28;20131;-77
2022/11/17 05:14:37;;;;;;;14.85;9.43;;;7.40;99.90;;;;;;5037431;28;20044;-76
2022/11/17 05:17:05;;;;;;;15.13;9.27;;;7.40;99.90;;;;;;5015203;28;20234;-76
2022/11/17 05:19:33;;;;;;;14.38;9.38;;;7.40;99.90;;;;;;5043392;28;20055;-76
2022/11/17 05:21:59;;;;;;;19.30;10.60;;;7.30;99.90;;;;;;5045562;28;20041;-77
2022/11/17 05:24:25;;;;;;;15.60;9.85;;;7.30;99.90;;;;;;5023777;28;20225;-76
2022/11/17 05:26:52;;;;;;;17.00;9.90;;;7.30;99.90;;;;;;5056924;28;20036;-76
2022/11/17 05:29:20;;;;;;;14.43;9.15;;;7.30;99.90;;;;;;5050923;28;20265;-77
2022/11/17 05:31:47;;;;;;;15.35;9.82;;;7.30;99.90;;;;;;5047745;28;20067;-76
2022/11/17 05:34:16;;;;;;;13.35;9.30;;;7.40;99.90;;;;;;5047070;28;20044;-77
2022/11/17 05:36:42;;;;;;;15.38;9.73;;;7.40;99.90;;;;;;5031422;28;20106;-76
2022/11/17 05:39:08;;;;;;;15.68;9.35;;;7.40;99.90;;;;;;5014025;28;20040;-76
2022/11/17 05:41:36;;;;;;;14.95;8.93;;;7.30;99.90;;;;;;5044479;28;20129;-77
2022/11/17 05:44:02;;;;;;;12.77;9.05;;;7.30;99.90;;;;;;5047757;28;20059;-76
2022/11/17 05:46:28;;;;;;;11.52;8.55;;;7.30;99.90;;;;;;5063169;28;20060;-76
2022/11/17 05:48:53;;;;;;;13.60;9.70;;;7.30;99.90;;;;;;5030834;28;20516;-76
2022/11/17 05:51:21;;;;;;;12.33;9.13;;;7.30;99.90;;;;;;5030270;28;20087;-76
2022/11/17 05:53:48;;;;;;;11.55;8.30;;;7.30;99.90;;;;;;5046724;28;20045;-76
2022/11/17 05:56:32;;;;;;;13.20;8.45;;;7.30;99.90;;;;;;5047751;28;20036;-76
2022/11/17 05:59:27;;;;;;;11.65;8.52;;;7.30;99.90;;;;;;5055253;28;20352;-75
2022/11/17 06:02:01;;;;;;;12.40;8.23;;;7.20;99.90;;;;;;5061195;28;20052;-75
2022/11/17 06:04:28;;;;;;;10.00;7.78;;;7.20;99.90;;;;;;5059503;28;20495;-76
2022/11/17 06:06:57;;;;;;;11.25;7.85;;;7.20;99.90;;;;;;5036645;28;20052;-76
2022/11/17 06:09:29;;;;;;;11.07;7.93;;;7.20;99.90;;;;;;5026334;28;20045;-76
2022/11/17 06:11:55;;;;;;;16.33;9.10;;;7.20;99.90;;;;;;5013007;28;20036;-76
2022/11/17 06:14:20;;;;;;;10.73;8.00;;;7.20;99.90;;;;;;5041300;28;20120;-76
2022/11/17 06:16:49;;;;;;;11.30;7.97;;;7.20;99.90;;;;;;5037268;28;20118;-75
2022/11/17 06:19:20;;;;;;;13.70;8.13;;;7.10;99.90;;;;;;5050714;28;20152;-76
2022/11/17 06:21:46;;;;;;;10.65;7.78;;;7.10;99.90;;;;;;5063597;28;20055;-75
2022/11/17 06:24:11;;;;;;;11.10;7.97;;;7.10;99.90;;;;;;5026989;28;20040;-76
2022/11/17 06:26:41;;;;;;;13.07;8.20;;;7.10;99.90;;;;;;5021293;28;20321;-76
2022/11/17 06:29:08;;;;;;;12.90;8.27;;;7.10;99.90;;;;;;5044799;28;20054;-76
2022/11/17 06:31:33;;;;;;;11.23;7.57;;;7.00;99.90;;;;;;5029573;28;20123;-76
2022/11/17 06:34:01;;;;;;;14.00;8.80;;;7.00;99.90;;;;;;5063086;28;20127;-76
2022/11/17 06:36:28;;;;;;;12.55;8.32;;;7.00;99.90;;;;;;5062812;28;20071;-76
2022/11/17 06:38:54;;;;;;;11.10;8.55;;;7.00;99.90;;;;;;5044996;28;20124;-76
2022/11/17 06:41:20;;;;;;;12.10;8.33;;;6.90;99.90;;;;;;5045868;28;20123;-76
2022/11/17 06:43:45;;;;;;;11.90;8.40;;;6.90;99.90;;;;;;5063412;28;20473;-76
2022/11/17 06:46:11;;;;;;;11.30;7.63;;;6.90;99.90;;;;;;5046590;28;20044;-76
2022/11/17 06:48:37;;;;;;;11.73;8.07;;;6.80;99.90;;;;;;5027977;28;20056;-76
2022/11/17 06:51:04;;;;;;;10.40;7.00;;;6.80;99.90;;;;;;5054294;28;20234;-77
2022/11/17 06:53:31;;;;;;;8.93;6.97;;;6.80;99.90;;;;;;5062588;28;20037;-76
2022/11/17 06:58:26;;;;;;;9.35;6.95;;;6.80;99.90;;;;;;5059734;28;20041;-76
2022/11/17 07:00:52;;;;;;;11.65;8.25;;;6.70;99.90;;;;;;5037423;28;20051;-77
2022/11/17 07:03:18;;;;;;;11.52;7.57;;;6.70;99.90;;;;;;5063207;28;20072;-76
2022/11/17 07:05:45;;;;;;;10.90;7.57;;;6.70;99.90;;;;;;5067818;28;20040;-76
2022/11/17 07:08:11;;;;;;;10.90;7.30;;;6.70;99.90;;;;;;5066979;28;20103;-76
2022/11/17 07:10:37;;;;;;;9.37;6.90;;;6.60;99.90;;;;;;5014122;28;20069;-77
2022/11/17 07:13:03;;;;;;;9.03;7.20;;;6.60;99.90;;;;;;5037650;28;20367;-76
2022/11/17 07:15:29;;;;;;;9.20;7.43;;;6.60;99.90;;;;;;5039382;28;20455;-76
2022/11/17 07:17:55;;;;;;;8.93;7.28;;;6.60;99.90;;;;;;5050115;28;20492;-77
2022/11/17 07:20:21;;;;;;;10.75;7.68;;;6.60;99.90;;;;;;5050658;28;20488;-76
2022/11/17 07:22:47;;;;;;;10.03;7.77;;;6.50;99.90;;;;;;5028326;28;20091;-76
2022/11/17 07:25:13;;;;;;;10.70;7.45;;;6.60;99.90;;;;;;5052708;28;20093;-76
2022/11/17 07:27:38;;;;;;;9.53;7.53;;;6.50;99.90;;;;;;5025495;28;20048;-75
2022/11/17 07:30:06;;;;;;;10.13;7.40;;;6.50;99.90;;;;;;5066049;28;20047;-76
2022/11/17 07:32:32;;;;;;;11.15;7.60;;;6.60;99.90;;;;;;5048100;28;20033;-76
2022/11/17 07:35:00;;;;;;;10.50;7.78;;;6.50;99.90;;;;;;5023382;28;20037;-76
2022/11/17 07:37:32;;;;;;;9.55;7.10;;;6.50;99.90;;;;;;5032642;28;20045;-77
2022/11/17 07:39:59;;;;;;;9.60;7.40;;;6.60;99.90;;;;;;5044568;28;20052;-77
2022/11/17 07:42:25;;;;;;;9.55;7.50;;;6.60;99.90;;;;;;5061068;28;20048;-76
2022/11/17 07:44:50;;;;;;;9.30;7.30;;;6.60;99.90;;;;;;5049042;28;20529;-77
2022/11/17 07:47:16;;;;;;;8.57;7.07;;;6.60;99.90;;;;;;5033748;28;20079;-77
2022/11/17 07:49:42;;;;;;;9.83;7.37;;;6.60;99.90;;;;;;5049109;28;20048;-76
2022/11/17 07:52:07;;;;;;;10.37;7.27;;;6.60;99.90;;;;;;5033201;28;20724;-77
2022/11/17 07:54:33;;;;;;;9.60;7.33;;;6.60;99.90;;;;;;5043114;28;20040;-77
2022/11/17 07:56:59;;;;;;;10.17;7.27;;;6.60;99.90;;;;;;5039013;28;20040;-76
2022/11/17 07:59:24;;;;;;;9.83;7.83;;;6.70;99.90;;;;;;5065408;28;20314;-77
2022/11/17 08:01:50;;;;;;;9.77;7.30;;;6.70;99.90;;;;;;5031846;28;20044;-76
2022/11/17 08:04:16;;;;;;;9.10;7.20;;;6.70;99.90;;;;;;5049392;28;20110;-77
2022/11/17 08:06:41;;;;;;;11.43;7.23;;;6.70;99.90;;;;;;5029588;28;20456;-76
2022/11/17 08:09:09;;;;;;;9.27;7.27;;;6.70;99.90;;;;;;5042584;28;20044;-76
2022/11/17 08:11:35;;;;;;;8.75;6.53;;;6.70;99.90;;;;;;5065271;28;20515;-77
2022/11/17 08:14:01;;;;;;;8.83;6.50;;;6.70;99.90;;;;;;5016804;28;20040;-76
2022/11/17 08:16:29;;;;;;;9.17;7.33;;;6.70;99.90;;;;;;5046127;28;20033;-76
2022/11/17 08:18:56;;;;;;;10.00;7.43;;;6.70;99.90;;;;;;5043012;28;20036;-77
2022/11/17 08:21:22;;;;;;;10.32;6.43;;;6.70;99.90;;;;;;5021710;28;20040;-77
2022/11/17 08:23:53;;;;;;;10.38;7.22;;;6.70;99.90;;;;;;5060639;28;20052;-77
2022/11/17 08:26:20;;;;;;;8.68;6.50;;;6.70;99.90;;;;;;5041838;28;20039;-77
2022/11/17 08:28:46;;;;;;;9.73;6.35;;;6.60;99.90;;;;;;5009972;28;20045;-76
2022/11/17 08:31:12;;;;;;;7.70;5.75;;;6.60;99.90;;;;;;5047865;28;20041;-77
2022/11/17 08:33:38;;;;;;;8.10;6.20;;;6.60;99.90;;;;;;5064053;28;20064;-76
2022/11/17 08:36:06;;;;;;;8.27;6.03;;;6.60;99.90;;;;;;5051282;28;20063;-77
2022/11/17 08:38:32;;;;;;;7.65;6.38;;;6.70;99.90;;;;;;5048850;28;20442;-77
2022/11/17 08:41:03;;;;;;;8.38;5.93;;;6.60;99.90;;;;;;5065102;28;20198;-77
2022/11/17 08:43:30;;;;;;;8.57;6.30;;;6.70;99.90;;;;;;5037736;28;20041;-77
2022/11/17 08:45:56;;;;;;;8.68;6.28;;;6.60;99.90;;;;;;5064486;28;20036;-77
2022/11/17 08:48:22;;;;;;;7.60;5.97;;;6.60;99.90;;;;;;5048937;28;20059;-77
2022/11/17 08:50:48;;;;;;;8.80;6.40;;;6.60;99.90;;;;;;5040213;28;20044;-78
2022/11/17 08:53:16;;;;;;;7.80;6.00;;;6.60;99.90;;;;;;5012633;28;20043;-77
2022/11/17 08:55:43;;;;;;;9.05;6.13;;;6.60;99.90;;;;;;5039758;28;20336;-77
2022/11/17 08:58:11;;;;;;;8.60;6.22;;;6.70;99.90;;;;;;5022796;28;20485;-77
2022/11/17 09:00:37;;;;;;;7.60;5.93;;;6.70;99.90;;;;;;5054826;28;20037;-78
2022/11/17 09:03:08;;;;;;;8.07;5.88;;;6.80;99.90;;;;;;5054972;28;20036;-78
2022/11/17 09:05:37;;;;;;;8.52;6.55;;;6.80;99.90;;;;;;5057503;28;20116;-77
2022/11/17 09:08:04;;;;;;;9.05;6.22;;;6.80;99.90;;;;;;5039149;28;20040;-78
2022/11/17 09:10:30;;;;;;;9.38;5.88;;;6.90;99.90;;;;;;5058994;28;20041;-77
2022/11/17 09:12:56;;;;;;;9.20;5.40;;;6.90;99.90;;;;;;5022432;28;20102;-78
2022/11/17 09:15:24;;;;;;;8.67;6.00;;;6.90;99.90;;;;;;5055544;28;20291;-77
2022/11/17 09:17:50;;;;;;;7.38;5.60;;;6.90;99.90;;;;;;5055311;28;20297;-77
2022/11/17 09:20:18;;;;;;;8.00;5.90;;;6.90;99.90;;;;;;5039439;28;20036;-78
2022/11/17 09:22:44;;;;;;;9.30;6.05;;;6.90;99.90;;;;;;5036364;28;20048;-78
2022/11/17 09:25:10;;;;;;;9.13;5.40;;;6.90;99.90;;;;;;5054215;28;20520;-76
2022/11/17 09:27:36;;;;;;;7.60;5.50;;;6.90;99.90;;;;;;5038743;28;20344;-77
2022/11/17 09:30:01;;;;;;;7.43;5.57;;;6.90;99.90;;;;;;5036173;28;20051;-77
2022/11/17 09:32:27;;;;;;;7.17;5.83;;;6.90;99.90;;;;;;5055913;28;20041;-77
2022/11/17 09:34:53;;;;;;;7.90;5.87;;;6.90;99.90;;;;;;5044660;28;20033;-78
2022/11/17 09:37:19;;;;;;;8.10;6.07;;;6.90;99.90;;;;;;5031174;28;20500;-77
2022/11/17 09:39:45;;;;;;;8.75;5.57;;;6.90;99.90;;;;;;5036690;28;20041;-78
2022/11/17 09:42:14;;;;;;;8.83;6.30;;;6.90;99.90;;;;;;5012490;28;20044;-77
2022/11/17 09:44:46;;;;;;;6.63;5.30;;;6.90;99.90;;;;;;5054961;28;20040;-77
2022/11/17 09:47:36;;;;;;;8.00;5.55;;;6.90;99.90;;;;;;5056050;28;20476;-76
2022/11/17 09:50:19;;;;;;;8.20;5.50;;;6.90;99.90;;;;;;5056569;28;20175;-77
2022/11/17 09:52:59;;;;;;;7.32;5.13;;;7.00;99.90;;;;;;5059224;28;20044;-77
2022/11/17 09:55:45;;;;;;;7.18;5.35;;;7.00;99.90;;;;;;5053686;28;20046;-77
2022/11/17 09:58:18;;;;;;;6.90;5.28;;;7.00;99.90;;;;;;5058374;28;20080;-77
2022/11/17 10:00:47;;;;;;;6.85;5.10;;;7.00;99.90;;;;;;5039284;28;20067;-77
2022/11/17 10:03:23;;;;;;;6.72;5.40;;;7.00;99.90;;;;;;5058005;28;20056;-78
2022/11/17 10:05:50;;;;;;;6.85;5.13;;;7.00;99.90;;;;;;5054607;28;20044;-77
2022/11/17 10:08:19;;;;;;;8.20;5.80;;;7.00;99.90;;;;;;5062539;28;20056;-78
2022/11/17 10:10:47;;;;;;;8.82;5.75;;;7.00;99.90;;;;;;5050837;28;20544;-77
2022/11/17 10:13:32;;;;;;;9.98;5.95;;;7.00;99.90;;;;;;5052735;28;20123;-77
2022/11/17 10:16:06;;;;;;;6.85;5.40;;;7.00;99.90;;;;;;5077680;28;20109;-78
2022/11/17 10:18:37;;;;;;;7.18;5.70;;;7.10;99.90;;;;;;5057389;28;20495;-77
2022/11/17 10:21:05;;;;;;;7.28;5.50;;;7.10;99.90;;;;;;5031657;28;20040;-77
2022/11/17 10:23:42;;;;;;;11.98;5.68;;;7.10;99.90;;;;;;5059749;28;20121;-78
2022/11/17 10:26:10;;;;;;;6.80;5.45;;;7.10;99.90;;;;;;5060085;28;20056;-77
2022/11/17 10:28:36;;;;;;;7.55;5.50;;;7.10;99.90;;;;;;5054036;28;20067;-77
2022/11/17 10:31:16;;;;;;;8.95;6.32;;;7.20;99.90;;;;;;5047244;28;20578;-77
2022/11/17 10:33:43;;;;;;;6.85;5.53;;;7.20;99.90;;;;;;5060490;28;20102;-76
2022/11/17 10:36:13;;;;;;;6.88;5.38;;;7.20;99.90;;;;;;5038284;28;20142;-76
2022/11/17 10:38:47;;;;;;;6.97;5.55;;;7.20;99.90;;;;;;5055216;28;20365;-77
2022/11/17 10:41:19;;;;;;;6.28;5.30;;;7.20;99.90;;;;;;5066691;28;20101;-78
2022/11/17 10:44:00;;;;;;;6.68;5.07;;;7.20;99.90;;;;;;5052237;28;20048;-77
2022/11/17 10:46:26;;;;;;;6.47;4.93;;;7.30;99.90;;;;;;5067475;28;20044;-77
2022/11/17 10:48:56;;;;;;;6.13;4.70;;;7.30;99.90;;;;;;5044685;28;20066;-78
2022/11/17 10:51:25;;;;;;;5.88;4.57;;;7.20;99.90;;;;;;5066593;28;20052;-77
2022/11/17 10:54:19;;;;;;;7.65;4.97;;;7.20;99.90;;;;;;5045858;28;20123;-76
2022/11/17 10:56:51;;;;;;;6.28;5.00;;;7.20;99.90;;;;;;5058504;28;20124;-76
2022/11/17 10:59:40;;;;;;;5.43;4.38;;;7.20;99.90;;;;;;5051064;28;20036;-76
2022/11/17 11:02:38;;;;;;;6.03;4.55;;;7.20;99.90;;;;;;5067070;28;20115;-76
2022/11/17 11:05:13;;;;;;;6.32;4.63;;;7.30;99.90;;;;;;5030257;28;20079;-77
2022/11/17 11:07:39;;;;;;;5.75;4.55;;;7.30;99.90;;;;;;5051292;28;20432;-77
2022/11/17 11:10:14;;;;;;;6.57;4.70;;;7.30;99.90;;;;;;5050082;28;20442;-77
2022/11/17 11:13:03;;;;;;;6.53;4.55;;;7.40;99.90;;;;;;5067613;28;20064;-76
2022/11/17 11:15:35;;;;;;;6.13;4.47;;;7.40;99.90;;;;;;5050464;28;20082;-76
2022/11/17 11:18:12;;;;;;;7.63;5.40;;;7.50;99.90;;;;;;5063587;28;20501;-77
2022/11/17 11:21:06;;;;;;;6.45;4.60;;;7.60;99.90;;;;;;5062384;28;20048;-76
2022/11/17 11:24:17;;;;;;;7.88;5.28;;;7.60;99.90;;;;;;5034230;28;20040;-76
2022/11/17 11:27:10;;;;;;;7.22;4.75;;;7.70;99.90;;;;;;5062981;28;20037;-76
2022/11/17 11:29:59;;;;;;;9.57;5.50;;;7.70;99.90;;;;;;5077248;28;20105;-76
2022/11/17 11:33:09;;;;;;;8.45;5.25;;;7.80;99.90;;;;;;5062462;28;20143;-76
2022/11/17 11:36:16;;;;;;;7.78;5.40;;;7.90;99.90;;;;;;5022991;28;20128;-77
2022/11/17 11:39:06;;;;;;;7.80;5.72;;;8.00;99.90;;;;;;5005559;28;20039;-77
2022/11/17 11:41:51;;;;;;;6.82;5.47;;;8.10;99.90;;;;;;5036769;28;20041;-77
2022/11/17 11:44:56;;;;;;;6.95;5.38;;;8.20;99.90;;;;;;5061144;28;20489;-75
2022/11/17 11:47:51;;;;;;;7.28;5.30;;;8.20;99.90;;;;;;5046311;28;20066;-76
2022/11/17 11:50:43;;;;;;;7.03;5.35;;;8.20;99.90;;;;;;5064379;28;20115;-75
2022/11/17 11:53:44;;;;;;;6.70;5.18;;;8.20;99.90;;;;;;5057032;28;20385;-75
2022/11/17 11:56:24;;;;;;;8.27;5.03;;;8.20;99.90;;;;;;5061292;28;20075;-76
2022/11/17 11:59:01;;;;;;;8.43;5.47;;;8.30;99.90;;;;;;5063656;28;20515;-76
2022/11/17 12:01:30;;;;;;;9.52;5.38;;;8.30;99.90;;;;;;5063352;28;20123;-76
2022/11/17 12:04:17;;;;;;;8.90;5.45;;;8.40;99.90;;;;;;5061647;28;20051;-75
2022/11/17 12:06:58;;;;;;;7.80;5.53;;;8.40;99.90;;;;;;5054994;28;20036;-76
2022/11/17 12:09:56;;;;;;;9.15;4.85;;;8.50;99.90;;;;;;5065668;28;20048;-77
2022/11/17 12:12:35;;;;;;;5.95;4.75;;;8.60;99.90;;;;;;5060738;28;20059;-76
2022/11/17 12:15:11;;;;;;;8.98;5.00;;;8.70;99.90;;;;;;5074615;28;20055;-76
2022/11/17 12:18:15;;;;;;;7.50;4.78;;;8.70;99.90;;;;;;5048299;28;20037;-76
2022/11/17 12:20:52;;;;;;;10.95;4.85;;;8.70;99.90;;;;;;4970386;28;20049;-76
2022/11/17 12:23:39;;;;;;;10.75;5.40;;;8.80;99.90;;;;;;5040654;28;20053;-77
2022/11/17 12:26:06;;;;;;;11.32;5.53;;;8.80;99.90;;;;;;5057428;28;20047;-77
2022/11/17 12:28:34;;;;;;;9.48;5.30;;;8.80;99.90;;;;;;5023343;28;20174;-77
2022/11/17 12:31:10;;;;;;;7.95;5.28;;;8.80;99.90;;;;;;5047889;28;20076;-76
2022/11/17 12:33:51;;;;;;;8.20;4.93;;;8.80;99.90;;;;;;5038938;28;20064;-77
2022/11/17 12:36:23;;;;;;;9.40;4.97;;;8.80;99.90;;;;;;5047842;28;20052;-76
2022/11/17 12:38:50;;;;;;;6.30;4.30;;;8.90;99.90;;;;;;5037159;28;20485;-77
2022/11/17 12:41:47;;;;;;;5.97;2.35;;;8.90;99.90;;;;;;5065601;28;20053;-76
2022/11/17 12:44:47;;;;;;;3.20;1.10;;;9.00;99.90;;;;;;5054888;28;20056;-76
2022/11/17 12:47:16;;;;;;;7.50;2.53;;;9.10;99.90;;;;;;5032384;28;20291;-77
2022/11/17 12:49:54;;;;;;;6.60;1.43;;;9.20;99.90;;;;;;5041600;28;20266;-76
2022/11/17 12:52:36;;;;;;;6.63;2.57;;;9.20;99.90;;;;;;5055840;28;20287;-76
2022/11/17 12:55:20;;;;;;;5.67;1.50;;;9.20;99.90;;;;;;5061171;28;20279;-76
2022/11/17 12:57:52;;;;;;;12.00;2.37;;;9.30;99.90;;;;;;5044606;28;20293;-76
2022/11/17 13:00:21;;;;;;;3.60;1.10;;;9.30;99.90;;;;;;5063052;28;20956;-76
2022/11/17 13:02:56;;;;;;;7.60;1.70;;;9.30;99.90;;;;;;5037616;28;20278;-76
2022/11/17 13:05:24;;;;;;;5.05;1.20;;;9.30;99.90;;;;;;5048182;28;20045;-76
2022/11/17 13:08:13;;;;;;;4.13;1.50;;;9.30;99.90;;;;;;5056992;28;20087;-76
2022/11/17 13:10:38;;;;;;;4.63;1.67;;;9.30;99.90;;;;;;5052066;28;20766;-76
2022/11/17 13:13:16;;;;;;;4.00;1.30;;;9.30;99.90;;;;;;5033166;28;20703;-76
2022/11/17 13:15:43;;;;;;;7.63;1.30;;;9.30;99.90;;;;;;5036309;28;20408;-76
2022/11/17 13:18:16;;;;;;;5.47;1.13;;;9.30;99.90;;;;;;5043570;28;20283;-76
2022/11/17 13:20:46;;;;;;;8.20;1.67;;;9.30;99.90;;;;;;5079407;28;20279;-76
2022/11/17 13:23:21;;;;;;;6.10;1.37;;;9.30;99.90;;;;;;5038991;28;20290;-77
2022/11/17 13:25:48;;;;;;;5.47;1.42;;;9.30;99.90;;;;;;5041321;28;20721;-76
2022/11/17 13:28:31;;;;;;;6.20;1.67;;;9.30;99.90;;;;;;5063850;28;20376;-76
2022/11/17 13:30:57;;;;;;;4.70;1.00;;;9.30;99.90;;;;;;5045888;28;20287;-77
2022/11/17 13:33:24;;;;;;;5.40;1.53;;;9.30;99.90;;;;;;5061518;28;20328;-76
2022/11/17 13:36:25;;;;;;;4.37;1.20;;;9.20;99.90;;;;;;5036375;28;20460;-76
2022/11/17 13:38:59;;;;;;;6.30;1.30;;;9.20;99.90;;;;;;5033886;28;20282;-76